Time;durP1;ratioP1;P1;durP2;ratioP2;P2;SDS_P1;SDS_P2;PMS_P1;PMS_P2;Temp;Humidity;BMP_temperature;BMP_pressure;BME280_temperature;BME280_humidity;BME280_pressure;Samples;Min_cycle;Max_cycle;Signal;HPM_P1;HPM_P2
2021/05/26 00:01:25;;;;;;;57.27;2.20;;;12.20;1.00;;;;;;5132468;27;21080;-66
2021/05/26 00:03:52;;;;;;;57.57;2.60;;;12.20;1.00;;;;;;5134264;27;20827;-66
2021/05/26 00:06:18;;;;;;;57.17;2.10;;;12.20;1.00;;;;;;5134676;27;20440;-66
2021/05/26 00:08:46;;;;;;;57.40;2.27;;;12.20;1.00;;;;;;5135046;27;20543;-66
2021/05/26 00:11:14;;;;;;;57.30;2.30;;;12.20;1.00;;;;;;5134844;27;21011;-66
2021/05/26 00:13:41;;;;;;;57.30;2.27;;;12.30;1.00;;;;;;5134267;27;20444;-66
2021/05/26 00:16:08;;;;;;;57.50;2.30;;;12.30;1.00;;;;;;5134661;27;21000;-66
2021/05/26 00:18:35;;;;;;;57.30;2.10;;;12.30;1.00;;;;;;5134493;27;20531;-67
2021/05/26 00:21:03;;;;;;;57.27;2.20;;;12.30;1.00;;;;;;5134619;27;20504;-66
2021/05/26 00:23:29;;;;;;;57.20;2.20;;;12.30;1.00;;;;;;5134205;27;20449;-66
2021/05/26 00:25:57;;;;;;;57.23;2.20;;;12.40;1.00;;;;;;5134595;27;20864;-66
2021/05/26 00:28:23;;;;;;;57.30;2.20;;;12.40;1.00;;;;;;5134480;27;20455;-66
2021/05/26 00:30:51;;;;;;;57.23;2.20;;;12.40;1.00;;;;;;5134354;27;20483;-65
2021/05/26 00:33:19;;;;;;;57.27;2.30;;;12.40;1.00;;;;;;5130306;27;20563;-66
2021/05/26 00:35:45;;;;;;;57.40;2.30;;;12.40;1.00;;;;;;5133990;27;20539;-66
2021/05/26 00:38:12;;;;;;;57.33;1.97;;;12.40;1.00;;;;;;5134564;27;20483;-65
2021/05/26 00:40:39;;;;;;;57.07;2.20;;;12.40;1.00;;;;;;5134376;27;20871;-66
2021/05/26 00:43:07;;;;;;;57.30;2.30;;;12.40;1.00;;;;;;5133710;27;20976;-67
2021/05/26 00:45:35;;;;;;;57.17;2.10;;;12.40;1.00;;;;;;5134341;27;20755;-67
2021/05/26 00:48:02;;;;;;;57.27;2.20;;;12.40;1.00;;;;;;5133757;27;20500;-66
2021/05/26 00:50:32;;;;;;;57.20;2.17;;;12.40;1.00;;;;;;5134051;27;20535;-66
2021/05/26 00:53:00;;;;;;;57.30;2.30;;;12.50;1.00;;;;;;5133763;27;20502;-66
2021/05/26 00:55:26;;;;;;;57.20;2.10;;;12.50;1.00;;;;;;5133744;27;20527;-66
2021/05/26 00:57:53;;;;;;;57.20;2.10;;;12.50;1.00;;;;;;5133842;27;20613;-66
2021/05/26 01:00:22;;;;;;;57.20;2.00;;;12.50;1.00;;;;;;5133644;27;20527;-66
2021/05/26 01:02:50;;;;;;;57.73;2.53;;;12.50;1.00;;;;;;5132345;27;20460;-65
2021/05/26 01:05:18;;;;;;;57.20;2.40;;;12.50;1.00;;;;;;5132942;27;20830;-66
2021/05/26 01:07:45;;;;;;;56.97;2.17;;;12.50;1.00;;;;;;5133757;27;20451;-66
2021/05/26 01:10:13;;;;;;;57.20;2.20;;;12.50;1.00;;;;;;5133722;27;20493;-67
2021/05/26 01:12:40;;;;;;;57.37;2.20;;;12.50;1.00;;;;;;5133148;27;20902;-66
2021/05/26 01:15:09;;;;;;;57.27;2.10;;;12.40;1.00;;;;;;5133396;27;20575;-67
2021/05/26 01:17:37;;;;;;;57.17;2.13;;;12.30;1.00;;;;;;5133823;27;20476;-67
2021/05/26 01:20:05;;;;;;;57.17;2.17;;;12.20;1.00;;;;;;5133481;27;20531;-66
2021/05/26 01:22:32;;;;;;;57.30;2.20;;;12.20;1.00;;;;;;5133037;27;20521;-67
2021/05/26 01:24:59;;;;;;;57.27;2.10;;;12.10;1.00;;;;;;5133130;27;20485;-66
2021/05/26 01:27:25;;;;;;;57.17;2.20;;;12.10;1.00;;;;;;5133141;27;20520;-66
2021/05/26 01:29:55;;;;;;;57.17;2.13;;;12.00;1.00;;;;;;5133200;27;21022;-67
2021/05/26 01:32:21;;;;;;;57.37;2.30;;;11.90;1.00;;;;;;5133100;27;20468;-66
2021/05/26 01:34:47;;;;;;;57.37;2.20;;;11.70;1.00;;;;;;5129749;27;20466;-67
2021/05/26 01:37:14;;;;;;;57.33;2.40;;;11.60;1.00;;;;;;5132832;27;20531;-67
2021/05/26 01:39:41;;;;;;;57.37;2.13;;;11.50;1.00;;;;;;5132740;27;20951;-67
2021/05/26 01:42:07;;;;;;;57.57;2.40;;;11.30;1.00;;;;;;5132547;27;20504;-66
2021/05/26 01:44:35;;;;;;;57.27;2.20;;;11.20;1.00;;;;;;5133119;27;20523;-66
2021/05/26 01:47:01;;;;;;;57.40;2.40;;;11.20;1.00;;;;;;5132880;27;20449;-67
2021/05/26 01:49:27;;;;;;;57.43;2.33;;;11.00;1.00;;;;;;5132763;27;20532;-65
2021/05/26 01:51:54;;;;;;;61.97;2.33;;;11.00;1.00;;;;;;5132941;27;20496;-65
2021/05/26 01:54:20;;;;;;;57.27;2.60;;;11.00;1.00;;;;;;5132629;27;20542;-66
2021/05/26 01:56:47;;;;;;;57.37;2.30;;;11.00;1.00;;;;;;5132539;27;20522;-66
2021/05/26 01:59:14;;;;;;;57.33;2.37;;;11.00;1.00;;;;;;5132699;27;20531;-66
2021/05/26 02:01:41;;;;;;;57.27;2.23;;;11.00;1.00;;;;;;5132813;27;20838;-65
2021/05/26 02:04:07;;;;;;;57.37;2.30;;;11.10;1.00;;;;;;5132169;27;20453;-66
2021/05/26 02:06:33;;;;;;;57.47;2.33;;;11.10;1.00;;;;;;5129298;27;20531;-66
2021/05/26 02:09:00;;;;;;;57.30;2.20;;;11.10;1.00;;;;;;5132318;27;21041;-65
2021/05/26 02:14:11;;;;;;;57.33;2.27;;;11.20;1.00;;;;;;5132204;27;20435;-65
2021/05/26 02:16:38;;;;;;;57.67;2.30;;;11.20;1.00;;;;;;5132888;27;20843;-66
2021/05/26 02:19:05;;;;;;;57.37;2.33;;;11.20;1.00;;;;;;5132494;27;20437;-65
2021/05/26 02:21:31;;;;;;;57.40;2.20;;;11.20;1.00;;;;;;5132342;27;20513;-66
2021/05/26 02:23:58;;;;;;;57.57;2.40;;;11.20;1.00;;;;;;5132135;27;20532;-66
2021/05/26 02:26:24;;;;;;;57.37;2.33;;;11.30;1.00;;;;;;5132459;27;20476;-66
2021/05/26 02:28:51;;;;;;;57.17;2.37;;;11.30;1.00;;;;;;5132434;27;20448;-66
2021/05/26 02:31:18;;;;;;;57.37;2.30;;;11.30;1.00;;;;;;5132399;27;20441;-66
2021/05/26 02:33:44;;;;;;;57.47;2.40;;;11.30;1.00;;;;;;5131688;27;20499;-65
2021/05/26 02:36:11;;;;;;;57.60;2.30;;;11.30;1.00;;;;;;5128645;27;20479;-65
2021/05/26 02:38:37;;;;;;;57.33;2.33;;;11.30;1.00;;;;;;5132352;27;20443;-66
2021/05/26 02:41:03;;;;;;;57.47;2.40;;;11.30;1.00;;;;;;5132576;27;20483;-65
2021/05/26 02:43:30;;;;;;;57.37;2.40;;;11.40;1.00;;;;;;5132185;27;20861;-65
2021/05/26 02:45:56;;;;;;;57.17;2.30;;;11.40;1.00;;;;;;5132114;27;20583;-65
2021/05/26 02:48:23;;;;;;;57.20;2.20;;;11.40;1.00;;;;;;5132214;27;20444;-66
2021/05/26 02:50:50;;;;;;;57.67;2.50;;;11.40;1.00;;;;;;5131962;27;21014;-66
2021/05/26 02:53:16;;;;;;;57.33;2.20;;;11.40;1.00;;;;;;5132009;27;20466;-65
2021/05/26 02:55:43;;;;;;;57.40;2.20;;;11.40;1.00;;;;;;5132112;27;20451;-66
2021/05/26 02:58:09;;;;;;;57.07;2.20;;;11.40;1.00;;;;;;5131930;27;20591;-65
2021/05/26 03:00:36;;;;;;;57.57;2.40;;;11.40;1.00;;;;;;5132129;27;20508;-66
2021/05/26 03:03:02;;;;;;;57.40;2.20;;;11.40;1.00;;;;;;5131686;27;20459;-65
2021/05/26 03:05:29;;;;;;;57.03;2.20;;;11.30;1.00;;;;;;5132157;27;20547;-66
2021/05/26 03:07:55;;;;;;;57.27;2.17;;;11.30;1.00;;;;;;5117728;27;20445;-66
2021/05/26 03:10:22;;;;;;;57.33;2.50;;;11.30;1.00;;;;;;5124996;27;20497;-65
2021/05/26 03:12:48;;;;;;;57.50;2.27;;;11.40;1.00;;;;;;5135660;27;20951;-66
2021/05/26 03:15:17;;;;;;;57.40;2.40;;;11.40;1.00;;;;;;5135704;27;20535;-65
2021/05/26 03:17:44;;;;;;;57.13;2.40;;;11.40;1.00;;;;;;5135629;27;21044;-66
2021/05/26 03:20:13;;;;;;;57.37;2.37;;;11.40;1.00;;;;;;5135796;27;20527;-65
2021/05/26 03:22:41;;;;;;;57.07;2.20;;;11.40;1.00;;;;;;5135385;27;20500;-65
2021/05/26 03:25:11;;;;;;;57.27;2.40;;;11.30;1.00;;;;;;5135615;27;20451;-66
2021/05/26 03:27:39;;;;;;;57.57;2.60;;;11.40;1.00;;;;;;5135737;27;20482;-66
2021/05/26 03:30:08;;;;;;;57.10;2.43;;;11.30;1.00;;;;;;5135672;27;20447;-67
2021/05/26 03:32:35;;;;;;;57.37;2.30;;;11.30;1.00;;;;;;5135081;27;21052;-65
2021/05/26 03:35:01;;;;;;;57.50;2.90;;;11.30;1.00;;;;;;5135298;27;20505;-66
2021/05/26 03:37:28;;;;;;;57.30;2.20;;;11.20;1.00;;;;;;5134568;27;20872;-65
2021/05/26 03:39:56;;;;;;;57.13;2.20;;;11.20;1.00;;;;;;5132786;27;20535;-65
2021/05/26 03:42:22;;;;;;;57.57;2.40;;;11.20;1.00;;;;;;5134871;27;20464;-66
2021/05/26 03:44:49;;;;;;;57.27;2.40;;;11.10;1.00;;;;;;5135128;27;20891;-65
2021/05/26 03:47:16;;;;;;;57.23;2.43;;;11.10;1.00;;;;;;5135240;27;20543;-66
2021/05/26 03:49:42;;;;;;;57.63;2.57;;;11.00;1.00;;;;;;5135211;27;20454;-66
2021/05/26 03:52:09;;;;;;;57.40;2.47;;;11.00;1.00;;;;;;5134911;27;20478;-65
2021/05/26 03:54:35;;;;;;;56.93;2.30;;;11.00;1.00;;;;;;5134917;27;20534;-65
2021/05/26 03:57:03;;;;;;;57.30;2.20;;;11.00;1.00;;;;;;5135115;27;20578;-67
2021/05/26 03:59:30;;;;;;;57.53;2.60;;;11.00;1.00;;;;;;5135010;27;20448;-66
2021/05/26 04:01:56;;;;;;;57.10;2.20;;;11.00;1.00;;;;;;5134560;27;20498;-66
2021/05/26 04:04:22;;;;;;;57.00;2.47;;;11.00;1.00;;;;;;5134735;27;20539;-66
2021/05/26 04:06:49;;;;;;;57.33;2.50;;;11.00;1.00;;;;;;5135045;27;20450;-65
2021/05/26 04:09:15;;;;;;;57.17;2.30;;;11.10;1.00;;;;;;5131455;27;20456;-65
2021/05/26 04:11:42;;;;;;;57.27;2.40;;;11.10;1.00;;;;;;5134623;27;20498;-66
2021/05/26 04:14:09;;;;;;;57.40;2.50;;;11.10;1.00;;;;;;5134109;27;20466;-65
2021/05/26 04:16:36;;;;;;;57.27;2.40;;;11.20;1.00;;;;;;5134719;27;20524;-66
2021/05/26 04:19:02;;;;;;;57.60;2.63;;;11.20;1.00;;;;;;5134645;27;20940;-65
2021/05/26 04:21:30;;;;;;;57.33;2.53;;;11.30;1.00;;;;;;5134607;27;20546;-66
2021/05/26 04:23:57;;;;;;;57.37;2.50;;;11.30;1.00;;;;;;5132960;27;20535;-66
2021/05/26 04:26:23;;;;;;;57.67;2.60;;;11.30;1.00;;;;;;5134459;27;20809;-66
2021/05/26 04:28:50;;;;;;;57.60;2.50;;;11.40;1.00;;;;;;5134623;27;20494;-65
2021/05/26 04:31:17;;;;;;;57.13;2.30;;;11.40;1.00;;;;;;5134596;27;20539;-66
2021/05/26 04:33:43;;;;;;;57.17;2.40;;;11.30;1.00;;;;;;5134040;27;20983;-66
2021/05/26 04:36:10;;;;;;;57.40;2.13;;;11.30;1.00;;;;;;5134491;27;20865;-65
2021/05/26 04:38:36;;;;;;;57.27;2.40;;;11.30;1.00;;;;;;5134210;27;20497;-65
2021/05/26 04:41:03;;;;;;;57.40;2.20;;;11.40;1.00;;;;;;5130577;27;20556;-66
2021/05/26 04:43:30;;;;;;;57.37;2.20;;;11.30;1.00;;;;;;5133793;27;20499;-66
2021/05/26 04:45:56;;;;;;;57.27;2.40;;;11.30;1.00;;;;;;5134084;27;20459;-65
2021/05/26 04:48:23;;;;;;;57.27;2.30;;;11.30;1.00;;;;;;5134269;27;20850;-65
2021/05/26 04:50:49;;;;;;;57.17;2.30;;;11.20;1.00;;;;;;5134065;27;20459;-65
2021/05/26 04:53:16;;;;;;;57.47;2.40;;;11.20;1.00;;;;;;5133638;27;20499;-66
2021/05/26 04:55:42;;;;;;;57.40;2.43;;;11.20;1.00;;;;;;5133561;27;20523;-65
2021/05/26 04:58:10;;;;;;;57.50;2.50;;;11.20;1.00;;;;;;5133885;27;21070;-66
2021/05/26 05:00:37;;;;;;;57.07;2.27;;;11.20;1.00;;;;;;5133937;27;20821;-65
2021/05/26 05:03:03;;;;;;;57.23;2.30;;;11.20;1.00;;;;;;5133583;27;20468;-65
2021/05/26 05:05:32;;;;;;;57.23;2.60;;;11.20;1.00;;;;;;5133626;27;20447;-65
2021/05/26 05:07:58;;;;;;;57.37;2.50;;;11.20;1.00;;;;;;5133792;27;21026;-66
2021/05/26 05:10:25;;;;;;;57.13;2.27;;;11.20;1.00;;;;;;5133424;27;20444;-64
2021/05/26 05:12:51;;;;;;;57.50;2.33;;;11.20;1.00;;;;;;5130824;27;20496;-66
2021/05/26 05:15:18;;;;;;;57.37;2.43;;;11.20;1.00;;;;;;5133190;27;20605;-66
2021/05/26 05:17:46;;;;;;;64.67;2.60;;;11.20;1.00;;;;;;5133509;27;20484;-65
2021/05/26 05:20:14;;;;;;;57.17;2.40;;;11.20;1.00;;;;;;5133479;27;20452;-66
2021/05/26 05:22:42;;;;;;;57.17;2.33;;;11.10;1.00;;;;;;5133054;27;20471;-65
2021/05/26 05:25:10;;;;;;;57.47;2.40;;;11.10;1.00;;;;;;5133560;27;20543;-66
2021/05/26 05:27:36;;;;;;;57.30;2.50;;;11.00;1.00;;;;;;5133439;27;20444;-66
2021/05/26 05:30:03;;;;;;;57.37;2.20;;;10.80;1.00;;;;;;5133420;27;20482;-66
2021/05/26 05:32:30;;;;;;;57.27;2.30;;;10.70;1.00;;;;;;5133041;27;20464;-65
2021/05/26 05:34:56;;;;;;;57.37;2.50;;;10.60;1.00;;;;;;5132710;27;20538;-65
2021/05/26 05:37:22;;;;;;;57.27;2.47;;;10.50;1.00;;;;;;5132957;27;20517;-66
2021/05/26 05:39:50;;;;;;;57.27;2.33;;;10.50;1.00;;;;;;5133275;27;20453;-65
2021/05/26 05:42:16;;;;;;;57.70;2.57;;;10.40;1.00;;;;;;5130318;27;20467;-65
2021/05/26 05:44:42;;;;;;;57.33;2.50;;;10.40;1.00;;;;;;5132762;27;20458;-65
2021/05/26 05:47:09;;;;;;;57.27;2.40;;;10.30;1.00;;;;;;5132942;27;20667;-66
2021/05/26 05:49:35;;;;;;;57.33;2.50;;;10.30;1.00;;;;;;5132950;27;20526;-66
2021/05/26 05:52:01;;;;;;;57.47;2.37;;;10.30;1.00;;;;;;5132348;27;20551;-66
2021/05/26 05:54:28;;;;;;;57.37;2.53;;;10.30;1.00;;;;;;5132920;27;20534;-65
2021/05/26 05:56:55;;;;;;;57.37;2.30;;;10.30;1.00;;;;;;5132873;27;20563;-65
2021/05/26 05:59:21;;;;;;;57.70;2.53;;;10.30;1.00;;;;;;5132784;27;20451;-65
2021/05/26 06:01:47;;;;;;;57.70;2.50;;;10.30;1.00;;;;;;5132738;27;20496;-66
2021/05/26 06:04:14;;;;;;;57.27;2.23;;;10.30;1.00;;;;;;5132232;27;20482;-66
2021/05/26 06:06:40;;;;;;;57.50;2.30;;;10.30;1.00;;;;;;5132450;27;20527;-65
2021/05/26 06:09:07;;;;;;;57.60;2.30;;;10.20;1.00;;;;;;5132580;27;20475;-65
2021/05/26 06:11:33;;;;;;;57.70;2.70;;;10.20;1.00;;;;;;5132668;27;20470;-66
2021/05/26 06:14:04;;;;;;;57.43;2.57;;;10.20;1.00;;;;;;5116599;27;20509;-67
2021/05/26 06:16:32;;;;;;;57.37;2.40;;;10.20;1.00;;;;;;5127113;27;20482;-65
2021/05/26 06:18:59;;;;;;;57.37;2.30;;;10.20;1.00;;;;;;5132371;27;20451;-66
2021/05/26 06:21:25;;;;;;;57.50;2.30;;;10.20;1.00;;;;;;5132375;27;20546;-66
2021/05/26 06:23:52;;;;;;;57.47;2.40;;;10.20;1.00;;;;;;5131898;27;21028;-66
2021/05/26 06:26:18;;;;;;;57.60;2.50;;;10.20;1.00;;;;;;5132330;27;20534;-66
2021/05/26 06:28:44;;;;;;;57.40;2.60;;;10.30;1.00;;;;;;5132272;27;20483;-66
2021/05/26 06:31:12;;;;;;;57.67;2.90;;;10.30;1.00;;;;;;5132372;27;20441;-65
2021/05/26 06:33:39;;;;;;;57.30;2.50;;;10.30;1.00;;;;;;5131527;27;20458;-65
2021/05/26 06:36:05;;;;;;;57.17;2.40;;;10.40;1.00;;;;;;5132407;27;20448;-66
2021/05/26 06:38:32;;;;;;;57.37;2.40;;;10.40;1.00;;;;;;5131972;27;20483;-66
2021/05/26 06:40:58;;;;;;;57.43;2.50;;;10.40;1.00;;;;;;5132438;27;20854;-65
2021/05/26 06:43:24;;;;;;;57.37;2.43;;;10.40;1.00;;;;;;5131879;27;20473;-66
2021/05/26 06:45:51;;;;;;;58.17;2.80;;;10.50;1.00;;;;;;5130492;27;20535;-66
2021/05/26 06:48:18;;;;;;;57.90;2.50;;;10.50;1.00;;;;;;5136324;27;20535;-65
2021/05/26 06:50:44;;;;;;;57.90;2.80;;;10.50;1.00;;;;;;5136676;27;20447;-66
2021/05/26 06:53:11;;;;;;;57.47;2.57;;;10.50;1.00;;;;;;5136189;27;20498;-66
2021/05/26 06:55:37;;;;;;;57.37;2.50;;;10.50;1.00;;;;;;5136109;27;20447;-66
2021/05/26 06:58:03;;;;;;;57.27;2.60;;;10.50;1.00;;;;;;5136080;27;20602;-66
2021/05/26 07:00:30;;;;;;;57.47;2.30;;;10.60;1.00;;;;;;5136130;27;21015;-65
2021/05/26 07:02:57;;;;;;;57.47;2.60;;;10.70;1.00;;;;;;5135601;27;20517;-66
2021/05/26 07:05:24;;;;;;;57.37;2.57;;;10.80;1.00;;;;;;5136061;27;20448;-65
2021/05/26 07:07:50;;;;;;;57.40;2.40;;;10.80;1.00;;;;;;5136114;27;20524;-65
2021/05/26 07:10:18;;;;;;;57.53;2.63;;;10.80;1.00;;;;;;5136062;27;20471;-65
2021/05/26 07:12:46;;;;;;;57.60;2.73;;;10.80;1.00;;;;;;5135458;27;20558;-66
2021/05/26 07:15:13;;;;;;;57.13;2.37;;;10.70;1.00;;;;;;5129108;27;20816;-65
2021/05/26 07:17:40;;;;;;;57.27;2.43;;;10.60;1.00;;;;;;5121558;27;21085;-67
2021/05/26 07:20:07;;;;;;;57.80;2.50;;;10.60;1.00;;;;;;5135890;27;20447;-66
2021/05/26 07:22:34;;;;;;;57.27;2.30;;;10.70;1.00;;;;;;5135552;27;20908;-66
2021/05/26 07:25:01;;;;;;;57.57;2.50;;;10.80;1.00;;;;;;5135715;27;20468;-66
2021/05/26 07:27:27;;;;;;;57.33;2.40;;;10.80;1.00;;;;;;5135646;27;20479;-66
2021/05/26 07:29:54;;;;;;;57.20;2.30;;;10.80;1.00;;;;;;5135476;27;20495;-66
2021/05/26 07:32:20;;;;;;;57.37;2.40;;;10.80;1.00;;;;;;5135424;27;20547;-66
2021/05/26 07:34:46;;;;;;;57.07;2.30;;;10.80;1.00;;;;;;5135632;27;20531;-66
2021/05/26 07:37:13;;;;;;;57.17;2.40;;;10.80;1.00;;;;;;5135380;27;20472;-66
2021/05/26 07:39:40;;;;;;;57.80;2.80;;;10.90;1.00;;;;;;5135360;27;20534;-66
2021/05/26 07:42:08;;;;;;;57.37;2.60;;;10.90;1.00;;;;;;5134823;27;20475;-67
2021/05/26 07:44:35;;;;;;;57.47;2.60;;;11.00;1.00;;;;;;5134040;27;20444;-66
2021/05/26 07:47:02;;;;;;;57.23;2.40;;;11.10;1.00;;;;;;5132679;27;20539;-66
2021/05/26 07:49:28;;;;;;;57.20;2.50;;;11.20;1.00;;;;;;5135130;27;20444;-66
2021/05/26 07:51:55;;;;;;;57.27;2.40;;;11.20;1.00;;;;;;5134939;27;20567;-66
2021/05/26 07:54:22;;;;;;;57.27;2.40;;;11.10;1.00;;;;;;5134599;27;20799;-65
2021/05/26 07:56:50;;;;;;;57.50;2.40;;;11.00;1.00;;;;;;5131335;27;20494;-66
2021/05/26 07:59:17;;;;;;;57.17;2.40;;;11.00;1.00;;;;;;5134882;27;20508;-66
2021/05/26 08:01:44;;;;;;;57.03;2.40;;;11.00;1.00;;;;;;5135044;27;20465;-66
2021/05/26 08:04:10;;;;;;;57.23;2.23;;;11.00;1.00;;;;;;5134584;27;20497;-66
2021/05/26 08:06:37;;;;;;;57.37;2.40;;;11.00;1.00;;;;;;5134886;27;20433;-65
2021/05/26 08:09:04;;;;;;;57.27;2.30;;;11.00;1.00;;;;;;5135006;27;20463;-65
2021/05/26 08:11:30;;;;;;;57.07;2.27;;;11.00;1.00;;;;;;5134416;27;20604;-66
2021/05/26 08:13:57;;;;;;;57.20;2.40;;;11.10;1.00;;;;;;5134315;27;21231;-66
2021/05/26 08:16:24;;;;;;;57.23;2.40;;;11.10;1.00;;;;;;5134340;27;20444;-66
2021/05/26 08:18:50;;;;;;;57.50;2.47;;;11.00;1.00;;;;;;5134927;27;20449;-67
2021/05/26 08:21:17;;;;;;;57.20;2.37;;;11.00;1.00;;;;;;5134677;27;20883;-66
2021/05/26 08:23:43;;;;;;;57.37;2.40;;;11.00;1.00;;;;;;5134197;27;20451;-67
2021/05/26 08:26:14;;;;;;;58.13;2.93;;;11.00;1.00;;;;;;5134257;27;20548;-66
2021/05/26 08:28:40;;;;;;;57.20;2.37;;;11.00;1.00;;;;;;5131852;27;20800;-67
2021/05/26 08:31:08;;;;;;;57.70;2.90;;;11.00;1.00;;;;;;5134451;27;20867;-67
2021/05/26 08:33:34;;;;;;;57.37;2.43;;;11.00;1.00;;;;;;5133882;27;20454;-66
2021/05/26 08:36:00;;;;;;;57.30;2.30;;;11.00;1.00;;;;;;5134371;27;20494;-66
2021/05/26 08:38:27;;;;;;;57.13;2.47;;;11.00;1.00;;;;;;5134213;27;20483;-67
2021/05/26 08:40:53;;;;;;;57.30;2.40;;;11.00;1.00;;;;;;5134423;27;20563;-66
2021/05/26 08:43:19;;;;;;;57.17;2.30;;;10.90;1.00;;;;;;5134090;27;20469;-67
2021/05/26 08:45:46;;;;;;;57.07;2.30;;;10.90;1.00;;;;;;5134001;27;20527;-67
2021/05/26 08:48:17;;;;;;;57.50;2.40;;;10.80;1.00;;;;;;5134183;27;20663;-66
2021/05/26 08:50:45;;;;;;;57.20;2.40;;;10.80;1.00;;;;;;5134124;27;20448;-67
2021/05/26 08:53:12;;;;;;;57.30;2.40;;;10.80;1.00;;;;;;5133455;27;20506;-67
2021/05/26 08:55:39;;;;;;;57.23;2.10;;;10.80;1.00;;;;;;5133901;27;20740;-67
2021/05/26 08:58:05;;;;;;;57.50;2.43;;;10.80;1.00;;;;;;5134058;27;20475;-67
2021/05/26 09:00:32;;;;;;;57.40;2.50;;;10.80;1.00;;;;;;5131260;27;20547;-67
2021/05/26 09:02:58;;;;;;;57.30;2.80;;;10.80;1.00;;;;;;5133591;27;20831;-67
2021/05/26 09:05:28;;;;;;;57.20;2.30;;;10.80;1.00;;;;;;5133635;27;20437;-67
2021/05/26 09:07:55;;;;;;;57.27;2.30;;;10.80;1.00;;;;;;5133640;27;20448;-67
2021/05/26 09:10:22;;;;;;;57.27;2.40;;;10.90;1.00;;;;;;5133398;27;20454;-67
2021/05/26 09:12:51;;;;;;;57.30;2.40;;;10.80;1.00;;;;;;5133003;27;20551;-66
2021/05/26 09:15:20;;;;;;;57.40;2.60;;;10.70;1.00;;;;;;5133359;27;20956;-66
2021/05/26 09:17:49;;;;;;;57.70;2.90;;;10.80;1.00;;;;;;5133541;27;20475;-67
2021/05/26 09:20:24;;;;;;;57.33;2.43;;;10.80;1.00;;;;;;5133343;27;20535;-66
2021/05/26 09:23:06;;;;;;;57.10;2.37;;;10.80;1.00;;;;;;5132951;27;20471;-67
2021/05/26 09:25:33;;;;;;;57.27;2.43;;;10.80;1.00;;;;;;5133608;27;20477;-66
2021/05/26 09:28:16;;;;;;;57.27;2.27;;;10.80;1.00;;;;;;5133408;27;20458;-67
2021/05/26 09:30:44;;;;;;;57.37;2.50;;;10.80;1.00;;;;;;5118595;27;20544;-67
2021/05/26 09:33:38;;;;;;;57.37;2.40;;;10.90;1.00;;;;;;5127105;27;20463;-67
2021/05/26 09:36:26;;;;;;;62.70;2.50;;;11.00;1.00;;;;;;5097033;27;20855;-67
2021/05/26 09:38:56;;;;;;;57.07;2.30;;;11.10;1.00;;;;;;5133095;27;20491;-67
2021/05/26 09:41:25;;;;;;;57.33;2.30;;;11.10;1.00;;;;;;5132883;27;20455;-67
2021/05/26 09:43:53;;;;;;;57.27;2.30;;;11.10;1.00;;;;;;5132204;27;20587;-66
2021/05/26 09:46:27;;;;;;;57.17;2.40;;;11.20;1.00;;;;;;5132782;27;20463;-67
2021/05/26 09:49:13;;;;;;;57.30;2.27;;;11.20;1.00;;;;;;5133038;27;20569;-67
2021/05/26 09:51:41;;;;;;;57.60;2.57;;;11.30;1.00;;;;;;5130036;27;20557;-66
2021/05/26 09:54:10;;;;;;;66.33;3.10;;;11.30;1.00;;;;;;5132445;27;20474;-67
2021/05/26 09:56:37;;;;;;;57.17;2.60;;;11.40;1.00;;;;;;5132858;27;20885;-66
2021/05/26 09:59:04;;;;;;;57.17;2.30;;;11.40;1.00;;;;;;5133004;27;20535;-68
2021/05/26 10:01:31;;;;;;;57.33;2.40;;;11.40;1.00;;;;;;5133304;27;20506;-67
2021/05/26 10:03:58;;;;;;;57.27;2.30;;;11.40;1.00;;;;;;5132682;27;20491;-67
2021/05/26 10:06:24;;;;;;;59.70;3.10;;;11.40;1.00;;;;;;5133240;27;20528;-67
2021/05/26 10:08:52;;;;;;;56.87;2.43;;;11.60;1.00;;;;;;5132857;27;20483;-68
2021/05/26 10:11:20;;;;;;;61.30;2.47;;;11.60;1.00;;;;;;5133067;27;20476;-67
2021/05/26 10:13:48;;;;;;;57.27;2.30;;;11.50;1.00;;;;;;5131369;27;20523;-68
2021/05/26 10:16:17;;;;;;;57.23;2.30;;;11.50;1.00;;;;;;5126486;27;20536;-68
2021/05/26 10:18:44;;;;;;;57.40;2.50;;;11.50;1.00;;;;;;5119130;27;20480;-67
2021/05/26 10:21:13;;;;;;;57.27;2.33;;;11.60;1.00;;;;;;5132176;27;20808;-68
2021/05/26 10:23:40;;;;;;;57.90;2.40;;;11.60;1.00;;;;;;5132072;27;20444;-67
2021/05/26 10:26:06;;;;;;;58.87;3.53;;;11.70;1.00;;;;;;5132567;27;20868;-67
2021/05/26 10:28:34;;;;;;;57.37;2.40;;;11.90;1.00;;;;;;5132452;27;20888;-66
2021/05/26 10:31:02;;;;;;;57.10;2.27;;;11.90;1.00;;;;;;5132440;27;20580;-68
2021/05/26 10:33:51;;;;;;;57.00;2.30;;;12.00;1.00;;;;;;5131753;27;20468;-66
2021/05/26 10:36:18;;;;;;;57.37;2.30;;;12.10;1.00;;;;;;5132455;27;20463;-67
2021/05/26 10:38:55;;;;;;;57.30;2.20;;;12.30;1.00;;;;;;5132233;27;20484;-67
2021/05/26 10:41:21;;;;;;;57.20;2.30;;;12.40;1.00;;;;;;5132204;27;20474;-68
2021/05/26 10:43:56;;;;;;;57.17;2.10;;;12.50;1.00;;;;;;5130641;27;20451;-68
2021/05/26 10:46:36;;;;;;;57.07;2.17;;;12.60;1.00;;;;;;5132059;27;20459;-67
2021/05/26 10:49:07;;;;;;;56.83;2.07;;;12.60;1.00;;;;;;5132268;27;20522;-67
2021/05/26 10:52:10;;;;;;;57.07;2.20;;;12.70;1.00;;;;;;5132035;27;20507;-66
2021/05/26 10:54:57;;;;;;;57.07;2.23;;;12.70;1.00;;;;;;5132306;27;20451;-67
2021/05/26 10:57:24;;;;;;;57.27;2.20;;;12.80;1.00;;;;;;5132366;27;20476;-67
2021/05/26 11:00:21;;;;;;;57.40;2.27;;;12.90;1.00;;;;;;5131959;27;20444;-66
2021/05/26 11:03:17;;;;;;;57.07;2.03;;;12.90;1.00;;;;;;5068154;28;20556;-66
2021/05/26 11:05:44;;;;;;;57.07;2.10;;;13.20;1.00;;;;;;5120472;27;20456;-67
2021/05/26 11:08:32;;;;;;;57.20;2.40;;;13.40;1.00;;;;;;5132045;27;20997;-66
2021/05/26 11:11:19;;;;;;;57.07;2.27;;;13.60;1.00;;;;;;5132384;27;20432;-66
2021/05/26 11:13:59;;;;;;;57.20;2.10;;;13.70;1.00;;;;;;5131250;27;20526;-68
2021/05/26 11:16:36;;;;;;;57.27;2.47;;;13.60;1.00;;;;;;5131566;27;20978;-67
2021/05/26 11:19:10;;;;;;;56.97;2.20;;;13.50;1.00;;;;;;5131875;27;20491;-66
2021/05/26 11:21:36;;;;;;;57.37;2.50;;;13.30;1.00;;;;;;5131858;27;21007;-66
2021/05/26 11:24:03;;;;;;;57.27;2.23;;;13.10;1.00;;;;;;5131240;27;20531;-66
2021/05/26 11:26:31;;;;;;;57.30;2.40;;;13.10;1.00;;;;;;5131957;27;20913;-66
2021/05/26 11:28:57;;;;;;;57.40;2.40;;;13.00;1.00;;;;;;5131780;27;20437;-67
2021/05/26 11:31:23;;;;;;;57.30;2.27;;;13.10;1.00;;;;;;5132009;27;20455;-66
2021/05/26 11:33:58;;;;;;;57.07;2.30;;;13.00;1.00;;;;;;5135072;27;20451;-66
2021/05/26 11:36:39;;;;;;;57.13;2.40;;;12.90;1.00;;;;;;5135445;27;20943;-66
2021/05/26 11:39:15;;;;;;;57.67;2.60;;;12.80;1.00;;;;;;5135163;27;20454;-69
2021/05/26 11:41:42;;;;;;;57.10;2.20;;;12.80;1.00;;;;;;5135384;27;21044;-67
2021/05/26 11:44:09;;;;;;;57.07;2.10;;;12.80;1.00;;;;;;5134863;27;20444;-67
2021/05/26 11:46:35;;;;;;;57.20;2.10;;;13.00;1.00;;;;;;5135371;27;20562;-64
2021/05/26 11:49:10;;;;;;;57.07;2.10;;;13.10;1.00;;;;;;5135375;27;20492;-65
2021/05/26 11:51:37;;;;;;;57.60;2.27;;;13.10;1.00;;;;;;5135232;27;20515;-67
2021/05/26 11:54:05;;;;;;;57.17;2.27;;;13.20;1.00;;;;;;5134719;27;20440;-67
2021/05/26 11:56:32;;;;;;;57.07;2.27;;;13.20;1.00;;;;;;5135090;27;20475;-66
2021/05/26 11:58:58;;;;;;;57.27;2.13;;;13.20;1.00;;;;;;5135292;27;20566;-68
2021/05/26 12:01:30;;;;;;;57.37;2.17;;;13.20;1.00;;;;;;5135019;27;20987;-66
2021/05/26 12:03:56;;;;;;;57.17;2.30;;;13.30;1.00;;;;;;5134622;27;20450;-68
2021/05/26 12:06:24;;;;;;;57.10;2.20;;;13.40;1.00;;;;;;5134937;27;20448;-66
2021/05/26 12:08:51;;;;;;;57.60;2.40;;;13.60;1.00;;;;;;5134899;27;20469;-68
2021/05/26 12:11:20;;;;;;;57.17;2.20;;;13.70;1.00;;;;;;5134597;27;20456;-65
2021/05/26 12:13:47;;;;;;;57.30;2.30;;;13.90;1.00;;;;;;5133550;27;20449;-67
2021/05/26 12:16:15;;;;;;;57.27;2.40;;;14.10;1.00;;;;;;5132535;27;20463;-64
2021/05/26 12:18:49;;;;;;;57.17;2.30;;;14.20;1.00;;;;;;5134631;27;20513;-65
2021/05/26 12:21:16;;;;;;;57.50;2.30;;;14.20;1.00;;;;;;5131340;27;20892;-66
2021/05/26 12:23:45;;;;;;;57.40;2.27;;;14.20;1.00;;;;;;5133928;27;20445;-66
2021/05/26 12:26:23;;;;;;;57.17;2.10;;;14.30;1.00;;;;;;5134383;27;20527;-66
2021/05/26 12:28:50;;;;;;;57.00;2.10;;;14.50;1.00;;;;;;5134696;27;20531;-66
2021/05/26 12:31:17;;;;;;;57.03;2.10;;;14.90;1.00;;;;;;5134488;27;20458;-66
2021/05/26 12:33:45;;;;;;;57.20;2.10;;;15.50;1.00;;;;;;5133999;27;20449;-66
2021/05/26 12:36:12;;;;;;;63.80;2.70;;;15.90;1.00;;;;;;5134130;27;20820;-66
2021/05/26 12:38:41;;;;;;;57.27;2.10;;;16.00;1.00;;;;;;5134138;27;20488;-66
2021/05/26 12:41:22;;;;;;;57.30;2.10;;;16.10;1.00;;;;;;5134529;27;20866;-67
2021/05/26 12:43:48;;;;;;;57.07;2.30;;;15.90;1.00;;;;;;5132814;27;20826;-66
2021/05/26 12:46:33;;;;;;;57.40;2.70;;;15.80;1.00;;;;;;5133322;27;20537;-67
2021/05/26 12:48:59;;;;;;;57.17;2.30;;;15.70;1.00;;;;;;5131998;27;20495;-67
2021/05/26 12:51:26;;;;;;;58.00;2.43;;;15.60;1.00;;;;;;5133906;27;20588;-65
2021/05/26 12:53:56;;;;;;;56.97;2.30;;;15.70;1.00;;;;;;5133765;27;20487;-66
2021/05/26 12:56:24;;;;;;;57.17;2.20;;;15.70;1.00;;;;;;5133383;27;20538;-66